Current Weather

West Michigan Rgnl

Holland, Michigan (KBIV)

Report from: Friday, June 21, 2024 7:53 PM EDT
Current time: Friday, June 21, 2024 8:41 PM EDT

Nearby weather – Weather history – Daily summaries
Weather forecast

Temperature28.9°C (84.0°F)
Heat index29.7°C (85.5°F)
Dew point17.2°C (63.0°F)
Winds Calm
Visibility10 mi. (16.1 km)
Clouds Sky clear
Altimeter30.10 in.Hg (1019 mB)
Relative humidity49 %
Density altitude1,687 ft. (514 m)
Sea-level pressure101.9 kPa (1019 mB, 30.08 in.Hg)
Max temp last 6 hours32.2°C (90.0°F)
Min temp last 6 hours28.3°C (82.9°F)
Remarks Fully automated report
Automated weather observing station with precipitation discriminator
Pressure falling more slowly
Flight conditions Visual Meteorological Conditions
Raw dataKBIV 212353Z AUTO 00000KT 10SM CLR 29/17 A3010 RMK AO2 SLP186 T02890172 10322 20283 56012
An error has occurred. This application may no longer respond until reloaded. Reload 🗙